<?xml version="1.0" encoding="UTF-8" standalone="no" ?>
<gpx xmlns="http://www.topografix.com/GPX/1/1" xmlns:xsi="http://www.w3.org/2001/XMLSchema-instance" xsi:schemaLocation="http://www.topografix.com/GPX/1/1 http://www.topografix.com/GPX/1/1/gpx.xsd" version="1.1" creator="VisuGPX - https://www.visugpx.com">
  <metadata>
    <name>Loisirs &amp;amp; Découvertes Journée Téléthon à Celles 24600 (7)</name>
    <desc><![CDATA[variante un peu plus courte du circuit au profit du téléthon, toutes ces promenades sont accessibles à tous ]]></desc>
  </metadata>
  <trk>
    <name><![CDATA[Tracé 3 déc. 2016 09:29:43]]></name>
    <trkseg>
      <trkpt lat="45.29903" lon="0.41441">
        <ele>114</ele>
        <time>2016-12-03T08:29:43Z</time>
      </trkpt>
      <trkpt lat="45.29909" lon="0.41442">
        <ele>105</ele>
        <time>2016-12-03T08:30:01Z</time>
      </trkpt>
      <trkpt lat="45.29909" lon="0.41442">
        <ele>105</ele>
        <time>2016-12-03T08:30:01Z</time>
      </trkpt>
      <trkpt lat="45.2996" lon="0.41553">
        <ele>105</ele>
        <time>2016-12-03T08:34:27Z</time>
      </trkpt>
      <trkpt lat="45.29983" lon="0.41575">
        <ele>106</ele>
        <time>2016-12-03T08:34:56Z</time>
      </trkpt>
      <trkpt lat="45.30007" lon="0.41604">
        <ele>110</ele>
        <time>2016-12-03T08:35:26Z</time>
      </trkpt>
      <trkpt lat="45.30011" lon="0.41634">
        <ele>105</ele>
        <time>2016-12-03T08:35:55Z</time>
      </trkpt>
      <trkpt lat="45.29988" lon="0.41666">
        <ele>101</ele>
        <time>2016-12-03T08:36:25Z</time>
      </trkpt>
      <trkpt lat="45.29963" lon="0.41697">
        <ele>100</ele>
        <time>2016-12-03T08:36:54Z</time>
      </trkpt>
      <trkpt lat="45.29948" lon="0.4174">
        <ele>99</ele>
        <time>2016-12-03T08:37:24Z</time>
      </trkpt>
      <trkpt lat="45.29966" lon="0.41785">
        <ele>100</ele>
        <time>2016-12-03T08:37:54Z</time>
      </trkpt>
      <trkpt lat="45.29983" lon="0.4182">
        <ele>103</ele>
        <time>2016-12-03T08:38:23Z</time>
      </trkpt>
      <trkpt lat="45.30003" lon="0.41858">
        <ele>103</ele>
        <time>2016-12-03T08:38:53Z</time>
      </trkpt>
      <trkpt lat="45.30024" lon="0.41886">
        <ele>103</ele>
        <time>2016-12-03T08:39:22Z</time>
      </trkpt>
      <trkpt lat="45.30053" lon="0.41912">
        <ele>104</ele>
        <time>2016-12-03T08:39:52Z</time>
      </trkpt>
      <trkpt lat="45.30077" lon="0.41938">
        <ele>107</ele>
        <time>2016-12-03T08:40:21Z</time>
      </trkpt>
      <trkpt lat="45.30102" lon="0.41971">
        <ele>108</ele>
        <time>2016-12-03T08:40:50Z</time>
      </trkpt>
      <trkpt lat="45.30118" lon="0.42009">
        <ele>111</ele>
        <time>2016-12-03T08:41:19Z</time>
      </trkpt>
      <trkpt lat="45.30135" lon="0.42045">
        <ele>111</ele>
        <time>2016-12-03T08:41:48Z</time>
      </trkpt>
      <trkpt lat="45.30148" lon="0.42092">
        <ele>109</ele>
        <time>2016-12-03T08:42:17Z</time>
      </trkpt>
      <trkpt lat="45.3017" lon="0.42133">
        <ele>110</ele>
        <time>2016-12-03T08:42:46Z</time>
      </trkpt>
      <trkpt lat="45.30188" lon="0.42174">
        <ele>108</ele>
        <time>2016-12-03T08:43:15Z</time>
      </trkpt>
      <trkpt lat="45.30203" lon="0.42218">
        <ele>110</ele>
        <time>2016-12-03T08:43:45Z</time>
      </trkpt>
      <trkpt lat="45.30223" lon="0.4226">
        <ele>114</ele>
        <time>2016-12-03T08:44:15Z</time>
      </trkpt>
      <trkpt lat="45.3024" lon="0.42303">
        <ele>113</ele>
        <time>2016-12-03T08:44:44Z</time>
      </trkpt>
      <trkpt lat="45.30257" lon="0.42347">
        <ele>112</ele>
        <time>2016-12-03T08:45:14Z</time>
      </trkpt>
      <trkpt lat="45.30267" lon="0.42392">
        <ele>113</ele>
        <time>2016-12-03T08:45:43Z</time>
      </trkpt>
      <trkpt lat="45.30271" lon="0.42439">
        <ele>113</ele>
        <time>2016-12-03T08:46:13Z</time>
      </trkpt>
      <trkpt lat="45.3027" lon="0.42489">
        <ele>115</ele>
        <time>2016-12-03T08:46:42Z</time>
      </trkpt>
      <trkpt lat="45.30264" lon="0.42522">
        <ele>114</ele>
        <time>2016-12-03T08:47:12Z</time>
      </trkpt>
      <trkpt lat="45.30244" lon="0.42546">
        <ele>118</ele>
        <time>2016-12-03T08:47:42Z</time>
      </trkpt>
      <trkpt lat="45.30224" lon="0.42557">
        <ele>130</ele>
        <time>2016-12-03T08:48:11Z</time>
      </trkpt>
      <trkpt lat="45.30205" lon="0.42581">
        <ele>134</ele>
        <time>2016-12-03T08:48:41Z</time>
      </trkpt>
      <trkpt lat="45.30197" lon="0.42607">
        <ele>130</ele>
        <time>2016-12-03T08:49:11Z</time>
      </trkpt>
      <trkpt lat="45.30185" lon="0.4262">
        <ele>134</ele>
        <time>2016-12-03T08:49:40Z</time>
      </trkpt>
      <trkpt lat="45.30169" lon="0.42641">
        <ele>139</ele>
        <time>2016-12-03T08:50:10Z</time>
      </trkpt>
      <trkpt lat="45.30153" lon="0.42671">
        <ele>139</ele>
        <time>2016-12-03T08:50:39Z</time>
      </trkpt>
      <trkpt lat="45.30146" lon="0.42692">
        <ele>141</ele>
        <time>2016-12-03T08:51:09Z</time>
      </trkpt>
      <trkpt lat="45.30129" lon="0.427">
        <ele>145</ele>
        <time>2016-12-03T08:51:38Z</time>
      </trkpt>
      <trkpt lat="45.30113" lon="0.42727">
        <ele>152</ele>
        <time>2016-12-03T08:52:08Z</time>
      </trkpt>
      <trkpt lat="45.30102" lon="0.4275">
        <ele>155</ele>
        <time>2016-12-03T08:52:37Z</time>
      </trkpt>
      <trkpt lat="45.30091" lon="0.4278">
        <ele>159</ele>
        <time>2016-12-03T08:53:07Z</time>
      </trkpt>
      <trkpt lat="45.30082" lon="0.42802">
        <ele>162</ele>
        <time>2016-12-03T08:53:36Z</time>
      </trkpt>
      <trkpt lat="45.30065" lon="0.42826">
        <ele>170</ele>
        <time>2016-12-03T08:54:05Z</time>
      </trkpt>
      <trkpt lat="45.30064" lon="0.42858">
        <ele>165</ele>
        <time>2016-12-03T08:54:34Z</time>
      </trkpt>
      <trkpt lat="45.30054" lon="0.42888">
        <ele>173</ele>
        <time>2016-12-03T08:55:03Z</time>
      </trkpt>
      <trkpt lat="45.30043" lon="0.42908">
        <ele>177</ele>
        <time>2016-12-03T08:55:32Z</time>
      </trkpt>
      <trkpt lat="45.30027" lon="0.42939">
        <ele>182</ele>
        <time>2016-12-03T08:56:02Z</time>
      </trkpt>
      <trkpt lat="45.30014" lon="0.42965">
        <ele>171</ele>
        <time>2016-12-03T08:56:32Z</time>
      </trkpt>
      <trkpt lat="45.29985" lon="0.42962">
        <ele>170</ele>
        <time>2016-12-03T08:57:01Z</time>
      </trkpt>
      <trkpt lat="45.29963" lon="0.42975">
        <ele>168</ele>
        <time>2016-12-03T08:57:31Z</time>
      </trkpt>
      <trkpt lat="45.29925" lon="0.42978">
        <ele>170</ele>
        <time>2016-12-03T08:58:00Z</time>
      </trkpt>
      <trkpt lat="45.29898" lon="0.42976">
        <ele>175</ele>
        <time>2016-12-03T08:58:30Z</time>
      </trkpt>
      <trkpt lat="45.29868" lon="0.42988">
        <ele>182</ele>
        <time>2016-12-03T08:59:00Z</time>
      </trkpt>
      <trkpt lat="45.29836" lon="0.42994">
        <ele>175</ele>
        <time>2016-12-03T08:59:30Z</time>
      </trkpt>
      <trkpt lat="45.29807" lon="0.42992">
        <ele>184</ele>
        <time>2016-12-03T08:59:59Z</time>
      </trkpt>
      <trkpt lat="45.29778" lon="0.43">
        <ele>181</ele>
        <time>2016-12-03T09:00:28Z</time>
      </trkpt>
      <trkpt lat="45.29755" lon="0.43042">
        <ele>170</ele>
        <time>2016-12-03T09:00:57Z</time>
      </trkpt>
      <trkpt lat="45.29752" lon="0.43039">
        <ele>169</ele>
        <time>2016-12-03T09:01:27Z</time>
      </trkpt>
      <trkpt lat="45.29752" lon="0.43045">
        <ele>172</ele>
        <time>2016-12-03T09:01:56Z</time>
      </trkpt>
      <trkpt lat="45.29749" lon="0.43046">
        <ele>169</ele>
        <time>2016-12-03T09:02:25Z</time>
      </trkpt>
      <trkpt lat="45.2975" lon="0.43042">
        <ele>169</ele>
        <time>2016-12-03T09:02:55Z</time>
      </trkpt>
      <trkpt lat="45.29755" lon="0.43041">
        <ele>167</ele>
        <time>2016-12-03T09:03:24Z</time>
      </trkpt>
      <trkpt lat="45.29744" lon="0.43026">
        <ele>169</ele>
        <time>2016-12-03T09:03:53Z</time>
      </trkpt>
      <trkpt lat="45.29725" lon="0.43016">
        <ele>173</ele>
        <time>2016-12-03T09:04:22Z</time>
      </trkpt>
      <trkpt lat="45.29708" lon="0.43012">
        <ele>175</ele>
        <time>2016-12-03T09:04:52Z</time>
      </trkpt>
      <trkpt lat="45.29682" lon="0.42997">
        <ele>174</ele>
        <time>2016-12-03T09:05:22Z</time>
      </trkpt>
      <trkpt lat="45.29652" lon="0.42985">
        <ele>174</ele>
        <time>2016-12-03T09:05:51Z</time>
      </trkpt>
      <trkpt lat="45.29632" lon="0.42977">
        <ele>178</ele>
        <time>2016-12-03T09:06:20Z</time>
      </trkpt>
      <trkpt lat="45.29609" lon="0.42971">
        <ele>179</ele>
        <time>2016-12-03T09:06:49Z</time>
      </trkpt>
      <trkpt lat="45.29581" lon="0.42954">
        <ele>179</ele>
        <time>2016-12-03T09:07:19Z</time>
      </trkpt>
      <trkpt lat="45.29544" lon="0.42952">
        <ele>179</ele>
        <time>2016-12-03T09:07:48Z</time>
      </trkpt>
      <trkpt lat="45.29525" lon="0.42934">
        <ele>183</ele>
        <time>2016-12-03T09:08:18Z</time>
      </trkpt>
      <trkpt lat="45.29501" lon="0.42897">
        <ele>165</ele>
        <time>2016-12-03T09:08:47Z</time>
      </trkpt>
      <trkpt lat="45.29487" lon="0.42873">
        <ele>185</ele>
        <time>2016-12-03T09:09:17Z</time>
      </trkpt>
      <trkpt lat="45.29462" lon="0.42852">
        <ele>190</ele>
        <time>2016-12-03T09:09:46Z</time>
      </trkpt>
      <trkpt lat="45.29435" lon="0.42815">
        <ele>182</ele>
        <time>2016-12-03T09:10:16Z</time>
      </trkpt>
      <trkpt lat="45.29418" lon="0.42785">
        <ele>181</ele>
        <time>2016-12-03T09:10:45Z</time>
      </trkpt>
      <trkpt lat="45.29393" lon="0.42785">
        <ele>182</ele>
        <time>2016-12-03T09:11:15Z</time>
      </trkpt>
      <trkpt lat="45.29374" lon="0.42817">
        <ele>179</ele>
        <time>2016-12-03T09:11:44Z</time>
      </trkpt>
      <trkpt lat="45.29359" lon="0.42856">
        <ele>179</ele>
        <time>2016-12-03T09:12:13Z</time>
      </trkpt>
      <trkpt lat="45.29341" lon="0.42882">
        <ele>178</ele>
        <time>2016-12-03T09:12:42Z</time>
      </trkpt>
      <trkpt lat="45.29306" lon="0.4289">
        <ele>175</ele>
        <time>2016-12-03T09:13:11Z</time>
      </trkpt>
      <trkpt lat="45.29276" lon="0.42905">
        <ele>174</ele>
        <time>2016-12-03T09:13:41Z</time>
      </trkpt>
      <trkpt lat="45.29252" lon="0.42925">
        <ele>173</ele>
        <time>2016-12-03T09:14:10Z</time>
      </trkpt>
      <trkpt lat="45.29225" lon="0.42938">
        <ele>178</ele>
        <time>2016-12-03T09:14:40Z</time>
      </trkpt>
      <trkpt lat="45.29215" lon="0.42967">
        <ele>166</ele>
        <time>2016-12-03T09:15:09Z</time>
      </trkpt>
      <trkpt lat="45.29225" lon="0.43006">
        <ele>171</ele>
        <time>2016-12-03T09:15:39Z</time>
      </trkpt>
      <trkpt lat="45.2924" lon="0.43038">
        <ele>177</ele>
        <time>2016-12-03T09:16:09Z</time>
      </trkpt>
      <trkpt lat="45.29266" lon="0.43071">
        <ele>174</ele>
        <time>2016-12-03T09:16:38Z</time>
      </trkpt>
      <trkpt lat="45.29284" lon="0.43103">
        <ele>169</ele>
        <time>2016-12-03T09:17:08Z</time>
      </trkpt>
      <trkpt lat="45.29301" lon="0.43142">
        <ele>171</ele>
        <time>2016-12-03T09:17:38Z</time>
      </trkpt>
      <trkpt lat="45.29313" lon="0.43172">
        <ele>164</ele>
        <time>2016-12-03T09:18:07Z</time>
      </trkpt>
      <trkpt lat="45.29327" lon="0.43208">
        <ele>163</ele>
        <time>2016-12-03T09:18:37Z</time>
      </trkpt>
      <trkpt lat="45.29339" lon="0.43245">
        <ele>152</ele>
        <time>2016-12-03T09:19:06Z</time>
      </trkpt>
      <trkpt lat="45.29349" lon="0.43274">
        <ele>158</ele>
        <time>2016-12-03T09:19:35Z</time>
      </trkpt>
      <trkpt lat="45.29367" lon="0.43315">
        <ele>159</ele>
        <time>2016-12-03T09:20:04Z</time>
      </trkpt>
      <trkpt lat="45.29387" lon="0.43352">
        <ele>151</ele>
        <time>2016-12-03T09:20:33Z</time>
      </trkpt>
      <trkpt lat="45.29398" lon="0.4338">
        <ele>145</ele>
        <time>2016-12-03T09:21:03Z</time>
      </trkpt>
      <trkpt lat="45.29406" lon="0.43413">
        <ele>144</ele>
        <time>2016-12-03T09:21:33Z</time>
      </trkpt>
      <trkpt lat="45.29418" lon="0.43446">
        <ele>141</ele>
        <time>2016-12-03T09:22:03Z</time>
      </trkpt>
      <trkpt lat="45.29425" lon="0.43452">
        <ele>139</ele>
        <time>2016-12-03T09:22:32Z</time>
      </trkpt>
      <trkpt lat="45.29435" lon="0.43475">
        <ele>139</ele>
        <time>2016-12-03T09:23:01Z</time>
      </trkpt>
      <trkpt lat="45.29444" lon="0.43507">
        <ele>142</ele>
        <time>2016-12-03T09:23:31Z</time>
      </trkpt>
      <trkpt lat="45.29459" lon="0.43541">
        <ele>144</ele>
        <time>2016-12-03T09:24:00Z</time>
      </trkpt>
      <trkpt lat="45.29465" lon="0.43555">
        <ele>142</ele>
        <time>2016-12-03T09:24:29Z</time>
      </trkpt>
      <trkpt lat="45.29477" lon="0.43575">
        <ele>147</ele>
        <time>2016-12-03T09:24:58Z</time>
      </trkpt>
      <trkpt lat="45.29479" lon="0.43594">
        <ele>151</ele>
        <time>2016-12-03T09:25:27Z</time>
      </trkpt>
      <trkpt lat="45.29484" lon="0.43606">
        <ele>156</ele>
        <time>2016-12-03T09:25:57Z</time>
      </trkpt>
      <trkpt lat="45.29495" lon="0.43629">
        <ele>156</ele>
        <time>2016-12-03T09:26:27Z</time>
      </trkpt>
      <trkpt lat="45.29496" lon="0.43641">
        <ele>160</ele>
        <time>2016-12-03T09:26:57Z</time>
      </trkpt>
      <trkpt lat="45.29504" lon="0.43656">
        <ele>160</ele>
        <time>2016-12-03T09:27:26Z</time>
      </trkpt>
      <trkpt lat="45.29511" lon="0.43673">
        <ele>164</ele>
        <time>2016-12-03T09:27:56Z</time>
      </trkpt>
      <trkpt lat="45.29517" lon="0.43686">
        <ele>166</ele>
        <time>2016-12-03T09:28:25Z</time>
      </trkpt>
      <trkpt lat="45.29524" lon="0.43705">
        <ele>168</ele>
        <time>2016-12-03T09:28:55Z</time>
      </trkpt>
      <trkpt lat="45.2953" lon="0.4373">
        <ele>173</ele>
        <time>2016-12-03T09:29:24Z</time>
      </trkpt>
      <trkpt lat="45.29536" lon="0.43743">
        <ele>180</ele>
        <time>2016-12-03T09:29:53Z</time>
      </trkpt>
      <trkpt lat="45.29547" lon="0.4377">
        <ele>183</ele>
        <time>2016-12-03T09:30:22Z</time>
      </trkpt>
      <trkpt lat="45.29555" lon="0.43786">
        <ele>183</ele>
        <time>2016-12-03T09:30:52Z</time>
      </trkpt>
      <trkpt lat="45.29558" lon="0.43795">
        <ele>182</ele>
        <time>2016-12-03T09:31:21Z</time>
      </trkpt>
      <trkpt lat="45.29559" lon="0.43789">
        <ele>179</ele>
        <time>2016-12-03T09:31:51Z</time>
      </trkpt>
      <trkpt lat="45.29563" lon="0.43789">
        <ele>177</ele>
        <time>2016-12-03T09:32:20Z</time>
      </trkpt>
      <trkpt lat="45.29569" lon="0.43813">
        <ele>183</ele>
        <time>2016-12-03T09:32:49Z</time>
      </trkpt>
      <trkpt lat="45.29582" lon="0.43856">
        <ele>180</ele>
        <time>2016-12-03T09:33:18Z</time>
      </trkpt>
      <trkpt lat="45.29581" lon="0.43859">
        <ele>180</ele>
        <time>2016-12-03T09:33:47Z</time>
      </trkpt>
      <trkpt lat="45.29581" lon="0.4386">
        <ele>180</ele>
        <time>2016-12-03T09:34:16Z</time>
      </trkpt>
      <trkpt lat="45.29583" lon="0.4386">
        <ele>183</ele>
        <time>2016-12-03T09:34:45Z</time>
      </trkpt>
      <trkpt lat="45.29581" lon="0.43868">
        <ele>184</ele>
        <time>2016-12-03T09:35:15Z</time>
      </trkpt>
      <trkpt lat="45.29585" lon="0.43865">
        <ele>180</ele>
        <time>2016-12-03T09:35:44Z</time>
      </trkpt>
      <trkpt lat="45.29585" lon="0.43861">
        <ele>182</ele>
        <time>2016-12-03T09:36:14Z</time>
      </trkpt>
      <trkpt lat="45.29585" lon="0.43857">
        <ele>182</ele>
        <time>2016-12-03T09:36:44Z</time>
      </trkpt>
      <trkpt lat="45.29582" lon="0.43855">
        <ele>181</ele>
        <time>2016-12-03T09:37:13Z</time>
      </trkpt>
      <trkpt lat="45.29584" lon="0.43853">
        <ele>182</ele>
        <time>2016-12-03T09:37:42Z</time>
      </trkpt>
      <trkpt lat="45.29586" lon="0.43856">
        <ele>182</ele>
        <time>2016-12-03T09:38:11Z</time>
      </trkpt>
      <trkpt lat="45.29584" lon="0.43858">
        <ele>185</ele>
        <time>2016-12-03T09:38:41Z</time>
      </trkpt>
      <trkpt lat="45.29577" lon="0.43867">
        <ele>187</ele>
        <time>2016-12-03T09:39:10Z</time>
      </trkpt>
      <trkpt lat="45.29577" lon="0.43878">
        <ele>185</ele>
        <time>2016-12-03T09:39:40Z</time>
      </trkpt>
      <trkpt lat="45.29583" lon="0.43872">
        <ele>186</ele>
        <time>2016-12-03T09:40:09Z</time>
      </trkpt>
      <trkpt lat="45.29585" lon="0.43868">
        <ele>183</ele>
        <time>2016-12-03T09:40:39Z</time>
      </trkpt>
      <trkpt lat="45.29605" lon="0.4387">
        <ele>183</ele>
        <time>2016-12-03T09:41:08Z</time>
      </trkpt>
      <trkpt lat="45.29629" lon="0.43859">
        <ele>184</ele>
        <time>2016-12-03T09:41:37Z</time>
      </trkpt>
      <trkpt lat="45.29663" lon="0.43852">
        <ele>186</ele>
        <time>2016-12-03T09:42:06Z</time>
      </trkpt>
      <trkpt lat="45.29685" lon="0.43858">
        <ele>182</ele>
        <time>2016-12-03T09:42:36Z</time>
      </trkpt>
      <trkpt lat="45.29696" lon="0.43857">
        <ele>181</ele>
        <time>2016-12-03T09:43:05Z</time>
      </trkpt>
      <trkpt lat="45.29723" lon="0.43883">
        <ele>185</ele>
        <time>2016-12-03T09:43:34Z</time>
      </trkpt>
      <trkpt lat="45.29757" lon="0.43897">
        <ele>186</ele>
        <time>2016-12-03T09:44:04Z</time>
      </trkpt>
      <trkpt lat="45.29787" lon="0.4391">
        <ele>189</ele>
        <time>2016-12-03T09:44:33Z</time>
      </trkpt>
      <trkpt lat="45.29815" lon="0.43919">
        <ele>191</ele>
        <time>2016-12-03T09:45:02Z</time>
      </trkpt>
      <trkpt lat="45.29838" lon="0.43943">
        <ele>193</ele>
        <time>2016-12-03T09:45:31Z</time>
      </trkpt>
      <trkpt lat="45.29863" lon="0.43957">
        <ele>192</ele>
        <time>2016-12-03T09:46:00Z</time>
      </trkpt>
      <trkpt lat="45.29881" lon="0.4396">
        <ele>189</ele>
        <time>2016-12-03T09:46:29Z</time>
      </trkpt>
      <trkpt lat="45.29894" lon="0.43967">
        <ele>187</ele>
        <time>2016-12-03T09:46:58Z</time>
      </trkpt>
      <trkpt lat="45.29907" lon="0.43981">
        <ele>189</ele>
        <time>2016-12-03T09:47:27Z</time>
      </trkpt>
      <trkpt lat="45.29934" lon="0.44002">
        <ele>195</ele>
        <time>2016-12-03T09:47:56Z</time>
      </trkpt>
      <trkpt lat="45.29962" lon="0.4401">
        <ele>188</ele>
        <time>2016-12-03T09:48:26Z</time>
      </trkpt>
      <trkpt lat="45.29964" lon="0.44037">
        <ele>192</ele>
        <time>2016-12-03T09:48:55Z</time>
      </trkpt>
      <trkpt lat="45.29953" lon="0.44067">
        <ele>192</ele>
        <time>2016-12-03T09:49:25Z</time>
      </trkpt>
      <trkpt lat="45.29935" lon="0.44085">
        <ele>195</ele>
        <time>2016-12-03T09:49:54Z</time>
      </trkpt>
      <trkpt lat="45.29921" lon="0.44113">
        <ele>196</ele>
        <time>2016-12-03T09:50:23Z</time>
      </trkpt>
      <trkpt lat="45.29912" lon="0.44152">
        <ele>190</ele>
        <time>2016-12-03T09:50:52Z</time>
      </trkpt>
      <trkpt lat="45.29904" lon="0.44185">
        <ele>187</ele>
        <time>2016-12-03T09:51:21Z</time>
      </trkpt>
      <trkpt lat="45.29905" lon="0.44232">
        <ele>186</ele>
        <time>2016-12-03T09:51:51Z</time>
      </trkpt>
      <trkpt lat="45.29905" lon="0.44239">
        <ele>181</ele>
        <time>2016-12-03T09:52:20Z</time>
      </trkpt>
      <trkpt lat="45.29897" lon="0.44278">
        <ele>179</ele>
        <time>2016-12-03T09:52:49Z</time>
      </trkpt>
      <trkpt lat="45.29894" lon="0.44303">
        <ele>175</ele>
        <time>2016-12-03T09:53:19Z</time>
      </trkpt>
      <trkpt lat="45.29894" lon="0.44309">
        <ele>172</ele>
        <time>2016-12-03T09:53:48Z</time>
      </trkpt>
      <trkpt lat="45.29876" lon="0.44328">
        <ele>178</ele>
        <time>2016-12-03T09:54:17Z</time>
      </trkpt>
      <trkpt lat="45.29853" lon="0.44375">
        <ele>178</ele>
        <time>2016-12-03T09:54:46Z</time>
      </trkpt>
      <trkpt lat="45.29831" lon="0.44428">
        <ele>180</ele>
        <time>2016-12-03T09:55:15Z</time>
      </trkpt>
      <trkpt lat="45.29811" lon="0.44483">
        <ele>165</ele>
        <time>2016-12-03T09:55:44Z</time>
      </trkpt>
      <trkpt lat="45.29808" lon="0.44519">
        <ele>160</ele>
        <time>2016-12-03T09:56:13Z</time>
      </trkpt>
      <trkpt lat="45.29806" lon="0.44525">
        <ele>161</ele>
        <time>2016-12-03T09:56:43Z</time>
      </trkpt>
      <trkpt lat="45.29804" lon="0.44529">
        <ele>162</ele>
        <time>2016-12-03T09:57:12Z</time>
      </trkpt>
      <trkpt lat="45.29797" lon="0.44544">
        <ele>165</ele>
        <time>2016-12-03T09:57:42Z</time>
      </trkpt>
      <trkpt lat="45.2978" lon="0.44571">
        <ele>157</ele>
        <time>2016-12-03T09:58:11Z</time>
      </trkpt>
      <trkpt lat="45.29771" lon="0.44606">
        <ele>155</ele>
        <time>2016-12-03T09:58:41Z</time>
      </trkpt>
      <trkpt lat="45.29759" lon="0.44638">
        <ele>154</ele>
        <time>2016-12-03T09:59:10Z</time>
      </trkpt>
      <trkpt lat="45.29745" lon="0.44678">
        <ele>152</ele>
        <time>2016-12-03T09:59:40Z</time>
      </trkpt>
      <trkpt lat="45.29726" lon="0.44716">
        <ele>147</ele>
        <time>2016-12-03T10:00:09Z</time>
      </trkpt>
      <trkpt lat="45.2971" lon="0.44746">
        <ele>148</ele>
        <time>2016-12-03T10:00:38Z</time>
      </trkpt>
      <trkpt lat="45.29694" lon="0.44781">
        <ele>147</ele>
        <time>2016-12-03T10:01:08Z</time>
      </trkpt>
      <trkpt lat="45.2968" lon="0.44828">
        <ele>143</ele>
        <time>2016-12-03T10:01:38Z</time>
      </trkpt>
      <trkpt lat="45.29668" lon="0.44864">
        <ele>140</ele>
        <time>2016-12-03T10:02:07Z</time>
      </trkpt>
      <trkpt lat="45.29653" lon="0.44901">
        <ele>140</ele>
        <time>2016-12-03T10:02:36Z</time>
      </trkpt>
      <trkpt lat="45.29638" lon="0.44929">
        <ele>138</ele>
        <time>2016-12-03T10:03:05Z</time>
      </trkpt>
      <trkpt lat="45.2963" lon="0.44967">
        <ele>138</ele>
        <time>2016-12-03T10:03:34Z</time>
      </trkpt>
      <trkpt lat="45.29644" lon="0.44999">
        <ele>137</ele>
        <time>2016-12-03T10:04:04Z</time>
      </trkpt>
      <trkpt lat="45.29672" lon="0.45006">
        <ele>138</ele>
        <time>2016-12-03T10:04:33Z</time>
      </trkpt>
      <trkpt lat="45.29688" lon="0.45007">
        <ele>134</ele>
        <time>2016-12-03T10:05:02Z</time>
      </trkpt>
      <trkpt lat="45.29715" lon="0.45013">
        <ele>136</ele>
        <time>2016-12-03T10:05:32Z</time>
      </trkpt>
      <trkpt lat="45.2975" lon="0.45015">
        <ele>130</ele>
        <time>2016-12-03T10:06:01Z</time>
      </trkpt>
      <trkpt lat="45.29781" lon="0.45018">
        <ele>128</ele>
        <time>2016-12-03T10:06:31Z</time>
      </trkpt>
      <trkpt lat="45.2981" lon="0.45038">
        <ele>127</ele>
        <time>2016-12-03T10:07:00Z</time>
      </trkpt>
      <trkpt lat="45.29841" lon="0.45067">
        <ele>123</ele>
        <time>2016-12-03T10:07:30Z</time>
      </trkpt>
      <trkpt lat="45.29863" lon="0.45101">
        <ele>120</ele>
        <time>2016-12-03T10:08:00Z</time>
      </trkpt>
      <trkpt lat="45.29884" lon="0.45136">
        <ele>119</ele>
        <time>2016-12-03T10:08:29Z</time>
      </trkpt>
      <trkpt lat="45.29897" lon="0.45168">
        <ele>117</ele>
        <time>2016-12-03T10:08:59Z</time>
      </trkpt>
      <trkpt lat="45.29901" lon="0.45175">
        <ele>116</ele>
        <time>2016-12-03T10:09:28Z</time>
      </trkpt>
      <trkpt lat="45.29905" lon="0.45194">
        <ele>115</ele>
        <time>2016-12-03T10:09:58Z</time>
      </trkpt>
      <trkpt lat="45.29921" lon="0.45236">
        <ele>109</ele>
        <time>2016-12-03T10:10:28Z</time>
      </trkpt>
      <trkpt lat="45.29943" lon="0.45264">
        <ele>106</ele>
        <time>2016-12-03T10:10:57Z</time>
      </trkpt>
      <trkpt lat="45.29965" lon="0.45291">
        <ele>105</ele>
        <time>2016-12-03T10:11:27Z</time>
      </trkpt>
      <trkpt lat="45.29993" lon="0.45296">
        <ele>106</ele>
        <time>2016-12-03T10:11:56Z</time>
      </trkpt>
      <trkpt lat="45.30003" lon="0.45262">
        <ele>107</ele>
        <time>2016-12-03T10:12:25Z</time>
      </trkpt>
      <trkpt lat="45.30006" lon="0.45231">
        <ele>110</ele>
        <time>2016-12-03T10:12:55Z</time>
      </trkpt>
      <trkpt lat="45.30022" lon="0.45202">
        <ele>116</ele>
        <time>2016-12-03T10:13:24Z</time>
      </trkpt>
      <trkpt lat="45.30038" lon="0.45167">
        <ele>122</ele>
        <time>2016-12-03T10:13:53Z</time>
      </trkpt>
      <trkpt lat="45.30049" lon="0.45129">
        <ele>123</ele>
        <time>2016-12-03T10:14:23Z</time>
      </trkpt>
      <trkpt lat="45.30059" lon="0.45107">
        <ele>124</ele>
        <time>2016-12-03T10:14:52Z</time>
      </trkpt>
      <trkpt lat="45.30075" lon="0.45084">
        <ele>127</ele>
        <time>2016-12-03T10:15:21Z</time>
      </trkpt>
      <trkpt lat="45.30086" lon="0.45062">
        <ele>126</ele>
        <time>2016-12-03T10:15:51Z</time>
      </trkpt>
      <trkpt lat="45.30098" lon="0.45045">
        <ele>129</ele>
        <time>2016-12-03T10:16:20Z</time>
      </trkpt>
      <trkpt lat="45.30109" lon="0.45013">
        <ele>133</ele>
        <time>2016-12-03T10:16:50Z</time>
      </trkpt>
      <trkpt lat="45.30114" lon="0.44987">
        <ele>137</ele>
        <time>2016-12-03T10:17:20Z</time>
      </trkpt>
      <trkpt lat="45.30127" lon="0.44946">
        <ele>139</ele>
        <time>2016-12-03T10:17:49Z</time>
      </trkpt>
      <trkpt lat="45.30142" lon="0.44914">
        <ele>142</ele>
        <time>2016-12-03T10:18:19Z</time>
      </trkpt>
      <trkpt lat="45.30156" lon="0.44886">
        <ele>146</ele>
        <time>2016-12-03T10:18:48Z</time>
      </trkpt>
      <trkpt lat="45.30172" lon="0.44865">
        <ele>150</ele>
        <time>2016-12-03T10:19:17Z</time>
      </trkpt>
      <trkpt lat="45.30193" lon="0.44841">
        <ele>150</ele>
        <time>2016-12-03T10:19:47Z</time>
      </trkpt>
      <trkpt lat="45.30217" lon="0.44831">
        <ele>146</ele>
        <time>2016-12-03T10:20:17Z</time>
      </trkpt>
      <trkpt lat="45.30227" lon="0.44811">
        <ele>145</ele>
        <time>2016-12-03T10:20:47Z</time>
      </trkpt>
      <trkpt lat="45.30233" lon="0.44811">
        <ele>151</ele>
        <time>2016-12-03T10:21:16Z</time>
      </trkpt>
      <trkpt lat="45.30252" lon="0.44808">
        <ele>155</ele>
        <time>2016-12-03T10:21:46Z</time>
      </trkpt>
      <trkpt lat="45.30273" lon="0.44794">
        <ele>163</ele>
        <time>2016-12-03T10:22:15Z</time>
      </trkpt>
      <trkpt lat="45.30284" lon="0.44775">
        <ele>165</ele>
        <time>2016-12-03T10:22:44Z</time>
      </trkpt>
      <trkpt lat="45.30294" lon="0.44758">
        <ele>166</ele>
        <time>2016-12-03T10:23:13Z</time>
      </trkpt>
      <trkpt lat="45.30306" lon="0.4473">
        <ele>171</ele>
        <time>2016-12-03T10:23:43Z</time>
      </trkpt>
      <trkpt lat="45.30319" lon="0.44716">
        <ele>167</ele>
        <time>2016-12-03T10:24:13Z</time>
      </trkpt>
      <trkpt lat="45.30341" lon="0.44694">
        <ele>173</ele>
        <time>2016-12-03T10:24:43Z</time>
      </trkpt>
      <trkpt lat="45.30359" lon="0.44681">
        <ele>173</ele>
        <time>2016-12-03T10:25:12Z</time>
      </trkpt>
      <trkpt lat="45.30377" lon="0.4466">
        <ele>171</ele>
        <time>2016-12-03T10:25:41Z</time>
      </trkpt>
      <trkpt lat="45.30392" lon="0.44648">
        <ele>173</ele>
        <time>2016-12-03T10:26:11Z</time>
      </trkpt>
      <trkpt lat="45.30394" lon="0.44646">
        <ele>176</ele>
        <time>2016-12-03T10:26:41Z</time>
      </trkpt>
      <trkpt lat="45.30394" lon="0.44645">
        <ele>177</ele>
        <time>2016-12-03T10:27:10Z</time>
      </trkpt>
      <trkpt lat="45.30395" lon="0.44644">
        <ele>177</ele>
        <time>2016-12-03T10:28:10Z</time>
      </trkpt>
      <trkpt lat="45.30394" lon="0.44642">
        <ele>176</ele>
        <time>2016-12-03T10:28:39Z</time>
      </trkpt>
      <trkpt lat="45.30397" lon="0.4462">
        <ele>178</ele>
        <time>2016-12-03T10:29:08Z</time>
      </trkpt>
      <trkpt lat="45.30396" lon="0.44591">
        <ele>177</ele>
        <time>2016-12-03T10:29:37Z</time>
      </trkpt>
      <trkpt lat="45.3039" lon="0.44543">
        <ele>184</ele>
        <time>2016-12-03T10:30:06Z</time>
      </trkpt>
      <trkpt lat="45.30387" lon="0.44501">
        <ele>182</ele>
        <time>2016-12-03T10:30:36Z</time>
      </trkpt>
      <trkpt lat="45.30387" lon="0.44492">
        <ele>184</ele>
        <time>2016-12-03T10:31:05Z</time>
      </trkpt>
      <trkpt lat="45.30372" lon="0.44447">
        <ele>183</ele>
        <time>2016-12-03T10:31:35Z</time>
      </trkpt>
      <trkpt lat="45.30352" lon="0.44421">
        <ele>182</ele>
        <time>2016-12-03T10:32:05Z</time>
      </trkpt>
      <trkpt lat="45.30324" lon="0.44403">
        <ele>178</ele>
        <time>2016-12-03T10:32:34Z</time>
      </trkpt>
      <trkpt lat="45.30306" lon="0.44391">
        <ele>180</ele>
        <time>2016-12-03T10:33:03Z</time>
      </trkpt>
      <trkpt lat="45.30281" lon="0.44361">
        <ele>177</ele>
        <time>2016-12-03T10:33:32Z</time>
      </trkpt>
      <trkpt lat="45.30261" lon="0.44323">
        <ele>183</ele>
        <time>2016-12-03T10:34:02Z</time>
      </trkpt>
      <trkpt lat="45.30244" lon="0.44298">
        <ele>184</ele>
        <time>2016-12-03T10:34:31Z</time>
      </trkpt>
      <trkpt lat="45.30225" lon="0.44278">
        <ele>180</ele>
        <time>2016-12-03T10:35:00Z</time>
      </trkpt>
      <trkpt lat="45.30221" lon="0.44268">
        <ele>179</ele>
        <time>2016-12-03T10:35:30Z</time>
      </trkpt>
      <trkpt lat="45.30229" lon="0.44276">
        <ele>184</ele>
        <time>2016-12-03T10:35:59Z</time>
      </trkpt>
      <trkpt lat="45.30263" lon="0.44274">
        <ele>182</ele>
        <time>2016-12-03T10:36:29Z</time>
      </trkpt>
      <trkpt lat="45.30286" lon="0.44288">
        <ele>190</ele>
        <time>2016-12-03T10:36:59Z</time>
      </trkpt>
      <trkpt lat="45.30313" lon="0.44295">
        <ele>195</ele>
        <time>2016-12-03T10:37:28Z</time>
      </trkpt>
      <trkpt lat="45.30342" lon="0.44314">
        <ele>194</ele>
        <time>2016-12-03T10:37:57Z</time>
      </trkpt>
      <trkpt lat="45.30371" lon="0.44338">
        <ele>201</ele>
        <time>2016-12-03T10:38:27Z</time>
      </trkpt>
      <trkpt lat="45.30403" lon="0.44341">
        <ele>199</ele>
        <time>2016-12-03T10:38:57Z</time>
      </trkpt>
      <trkpt lat="45.30432" lon="0.44336">
        <ele>203</ele>
        <time>2016-12-03T10:39:27Z</time>
      </trkpt>
      <trkpt lat="45.30463" lon="0.4433">
        <ele>203</ele>
        <time>2016-12-03T10:39:56Z</time>
      </trkpt>
      <trkpt lat="45.305" lon="0.44327">
        <ele>199</ele>
        <time>2016-12-03T10:40:25Z</time>
      </trkpt>
      <trkpt lat="45.30537" lon="0.44297">
        <ele>198</ele>
        <time>2016-12-03T10:40:55Z</time>
      </trkpt>
      <trkpt lat="45.30561" lon="0.44262">
        <ele>195</ele>
        <time>2016-12-03T10:41:25Z</time>
      </trkpt>
      <trkpt lat="45.30597" lon="0.44233">
        <ele>191</ele>
        <time>2016-12-03T10:41:55Z</time>
      </trkpt>
      <trkpt lat="45.30632" lon="0.44232">
        <ele>197</ele>
        <time>2016-12-03T10:42:25Z</time>
      </trkpt>
      <trkpt lat="45.30667" lon="0.44241">
        <ele>195</ele>
        <time>2016-12-03T10:42:55Z</time>
      </trkpt>
      <trkpt lat="45.30703" lon="0.44233">
        <ele>204</ele>
        <time>2016-12-03T10:43:24Z</time>
      </trkpt>
      <trkpt lat="45.30745" lon="0.44225">
        <ele>191</ele>
        <time>2016-12-03T10:43:53Z</time>
      </trkpt>
      <trkpt lat="45.30779" lon="0.44207">
        <ele>180</ele>
        <time>2016-12-03T10:44:23Z</time>
      </trkpt>
      <trkpt lat="45.30809" lon="0.44198">
        <ele>177</ele>
        <time>2016-12-03T10:44:52Z</time>
      </trkpt>
      <trkpt lat="45.30844" lon="0.44178">
        <ele>180</ele>
        <time>2016-12-03T10:45:21Z</time>
      </trkpt>
      <trkpt lat="45.30877" lon="0.44178">
        <ele>178</ele>
        <time>2016-12-03T10:45:51Z</time>
      </trkpt>
      <trkpt lat="45.30906" lon="0.44159">
        <ele>186</ele>
        <time>2016-12-03T10:46:21Z</time>
      </trkpt>
      <trkpt lat="45.30934" lon="0.44136">
        <ele>185</ele>
        <time>2016-12-03T10:46:50Z</time>
      </trkpt>
      <trkpt lat="45.30966" lon="0.44124">
        <ele>184</ele>
        <time>2016-12-03T10:47:19Z</time>
      </trkpt>
      <trkpt lat="45.30996" lon="0.44115">
        <ele>184</ele>
        <time>2016-12-03T10:47:49Z</time>
      </trkpt>
      <trkpt lat="45.31028" lon="0.441">
        <ele>183</ele>
        <time>2016-12-03T10:48:18Z</time>
      </trkpt>
      <trkpt lat="45.31061" lon="0.44094">
        <ele>185</ele>
        <time>2016-12-03T10:48:48Z</time>
      </trkpt>
      <trkpt lat="45.31091" lon="0.4409">
        <ele>188</ele>
        <time>2016-12-03T10:49:18Z</time>
      </trkpt>
      <trkpt lat="45.31124" lon="0.44091">
        <ele>190</ele>
        <time>2016-12-03T10:49:47Z</time>
      </trkpt>
      <trkpt lat="45.31145" lon="0.44083">
        <ele>186</ele>
        <time>2016-12-03T10:50:17Z</time>
      </trkpt>
      <trkpt lat="45.31149" lon="0.44081">
        <ele>183</ele>
        <time>2016-12-03T10:50:46Z</time>
      </trkpt>
      <trkpt lat="45.31148" lon="0.44082">
        <ele>184</ele>
        <time>2016-12-03T10:51:55Z</time>
      </trkpt>
      <trkpt lat="45.31147" lon="0.4408">
        <ele>184</ele>
        <time>2016-12-03T10:52:25Z</time>
      </trkpt>
      <trkpt lat="45.31141" lon="0.44062">
        <ele>185</ele>
        <time>2016-12-03T10:52:54Z</time>
      </trkpt>
      <trkpt lat="45.3113" lon="0.44023">
        <ele>183</ele>
        <time>2016-12-03T10:53:24Z</time>
      </trkpt>
      <trkpt lat="45.31109" lon="0.43987">
        <ele>181</ele>
        <time>2016-12-03T10:53:53Z</time>
      </trkpt>
      <trkpt lat="45.31087" lon="0.43948">
        <ele>178</ele>
        <time>2016-12-03T10:54:22Z</time>
      </trkpt>
      <trkpt lat="45.31071" lon="0.43904">
        <ele>178</ele>
        <time>2016-12-03T10:54:51Z</time>
      </trkpt>
      <trkpt lat="45.31048" lon="0.43867">
        <ele>178</ele>
        <time>2016-12-03T10:55:21Z</time>
      </trkpt>
      <trkpt lat="45.31014" lon="0.43846">
        <ele>177</ele>
        <time>2016-12-03T10:55:51Z</time>
      </trkpt>
      <trkpt lat="45.30982" lon="0.43832">
        <ele>176</ele>
        <time>2016-12-03T10:56:20Z</time>
      </trkpt>
      <trkpt lat="45.30948" lon="0.43811">
        <ele>177</ele>
        <time>2016-12-03T10:56:50Z</time>
      </trkpt>
      <trkpt lat="45.30923" lon="0.43793">
        <ele>182</ele>
        <time>2016-12-03T10:57:19Z</time>
      </trkpt>
      <trkpt lat="45.30897" lon="0.43762">
        <ele>181</ele>
        <time>2016-12-03T10:57:49Z</time>
      </trkpt>
      <trkpt lat="45.30857" lon="0.43731">
        <ele>171</ele>
        <time>2016-12-03T10:58:18Z</time>
      </trkpt>
      <trkpt lat="45.30824" lon="0.43707">
        <ele>171</ele>
        <time>2016-12-03T10:58:48Z</time>
      </trkpt>
      <trkpt lat="45.30797" lon="0.43666">
        <ele>170</ele>
        <time>2016-12-03T10:59:17Z</time>
      </trkpt>
      <trkpt lat="45.30778" lon="0.43631">
        <ele>170</ele>
        <time>2016-12-03T10:59:46Z</time>
      </trkpt>
      <trkpt lat="45.30759" lon="0.43597">
        <ele>170</ele>
        <time>2016-12-03T11:00:16Z</time>
      </trkpt>
      <trkpt lat="45.3074" lon="0.43566">
        <ele>172</ele>
        <time>2016-12-03T11:00:45Z</time>
      </trkpt>
      <trkpt lat="45.30721" lon="0.43539">
        <ele>177</ele>
        <time>2016-12-03T11:01:14Z</time>
      </trkpt>
      <trkpt lat="45.30705" lon="0.43521">
        <ele>175</ele>
        <time>2016-12-03T11:01:43Z</time>
      </trkpt>
      <trkpt lat="45.30699" lon="0.43523">
        <ele>177</ele>
        <time>2016-12-03T11:02:12Z</time>
      </trkpt>
      <trkpt lat="45.30687" lon="0.43522">
        <ele>176</ele>
        <time>2016-12-03T11:02:41Z</time>
      </trkpt>
      <trkpt lat="45.30671" lon="0.43523">
        <ele>176</ele>
        <time>2016-12-03T11:03:11Z</time>
      </trkpt>
      <trkpt lat="45.30663" lon="0.43512">
        <ele>177</ele>
        <time>2016-12-03T11:03:40Z</time>
      </trkpt>
      <trkpt lat="45.30652" lon="0.43492">
        <ele>175</ele>
        <time>2016-12-03T11:04:09Z</time>
      </trkpt>
      <trkpt lat="45.30632" lon="0.43473">
        <ele>171</ele>
        <time>2016-12-03T11:04:39Z</time>
      </trkpt>
      <trkpt lat="45.30597" lon="0.43466">
        <ele>171</ele>
        <time>2016-12-03T11:05:08Z</time>
      </trkpt>
      <trkpt lat="45.30569" lon="0.43471">
        <ele>166</ele>
        <time>2016-12-03T11:05:38Z</time>
      </trkpt>
      <trkpt lat="45.30546" lon="0.43473">
        <ele>166</ele>
        <time>2016-12-03T11:06:07Z</time>
      </trkpt>
      <trkpt lat="45.3052" lon="0.43477">
        <ele>163</ele>
        <time>2016-12-03T11:06:36Z</time>
      </trkpt>
      <trkpt lat="45.30502" lon="0.43481">
        <ele>161</ele>
        <time>2016-12-03T11:07:05Z</time>
      </trkpt>
      <trkpt lat="45.30478" lon="0.43483">
        <ele>152</ele>
        <time>2016-12-03T11:07:35Z</time>
      </trkpt>
      <trkpt lat="45.30472" lon="0.43526">
        <ele>151</ele>
        <time>2016-12-03T11:08:04Z</time>
      </trkpt>
      <trkpt lat="45.30469" lon="0.43562">
        <ele>146</ele>
        <time>2016-12-03T11:08:34Z</time>
      </trkpt>
      <trkpt lat="45.30461" lon="0.43534">
        <ele>144</ele>
        <time>2016-12-03T11:09:03Z</time>
      </trkpt>
      <trkpt lat="45.30448" lon="0.4349">
        <ele>143</ele>
        <time>2016-12-03T11:09:32Z</time>
      </trkpt>
      <trkpt lat="45.30441" lon="0.43444">
        <ele>144</ele>
        <time>2016-12-03T11:10:02Z</time>
      </trkpt>
      <trkpt lat="45.30459" lon="0.434">
        <ele>142</ele>
        <time>2016-12-03T11:10:32Z</time>
      </trkpt>
      <trkpt lat="45.30471" lon="0.43353">
        <ele>141</ele>
        <time>2016-12-03T11:11:01Z</time>
      </trkpt>
      <trkpt lat="45.30481" lon="0.43304">
        <ele>141</ele>
        <time>2016-12-03T11:11:31Z</time>
      </trkpt>
      <trkpt lat="45.30495" lon="0.4326">
        <ele>136</ele>
        <time>2016-12-03T11:12:00Z</time>
      </trkpt>
      <trkpt lat="45.3051" lon="0.43213">
        <ele>139</ele>
        <time>2016-12-03T11:12:30Z</time>
      </trkpt>
      <trkpt lat="45.30531" lon="0.43168">
        <ele>136</ele>
        <time>2016-12-03T11:13:00Z</time>
      </trkpt>
      <trkpt lat="45.3055" lon="0.4313">
        <ele>133</ele>
        <time>2016-12-03T11:13:29Z</time>
      </trkpt>
      <trkpt lat="45.30566" lon="0.43095">
        <ele>137</ele>
        <time>2016-12-03T11:13:58Z</time>
      </trkpt>
      <trkpt lat="45.30584" lon="0.43064">
        <ele>142</ele>
        <time>2016-12-03T11:14:28Z</time>
      </trkpt>
      <trkpt lat="45.30591" lon="0.43035">
        <ele>143</ele>
        <time>2016-12-03T11:14:57Z</time>
      </trkpt>
      <trkpt lat="45.30602" lon="0.4298">
        <ele>140</ele>
        <time>2016-12-03T11:15:26Z</time>
      </trkpt>
      <trkpt lat="45.3061" lon="0.42947">
        <ele>136</ele>
        <time>2016-12-03T11:15:55Z</time>
      </trkpt>
      <trkpt lat="45.30616" lon="0.42901">
        <ele>118</ele>
        <time>2016-12-03T11:16:24Z</time>
      </trkpt>
      <trkpt lat="45.30592" lon="0.42881">
        <ele>120</ele>
        <time>2016-12-03T11:16:53Z</time>
      </trkpt>
      <trkpt lat="45.30557" lon="0.42865">
        <ele>118</ele>
        <time>2016-12-03T11:17:23Z</time>
      </trkpt>
      <trkpt lat="45.30528" lon="0.4285">
        <ele>116</ele>
        <time>2016-12-03T11:17:52Z</time>
      </trkpt>
      <trkpt lat="45.30507" lon="0.42821">
        <ele>120</ele>
        <time>2016-12-03T11:18:22Z</time>
      </trkpt>
      <trkpt lat="45.30482" lon="0.42791">
        <ele>122</ele>
        <time>2016-12-03T11:18:51Z</time>
      </trkpt>
      <trkpt lat="45.30454" lon="0.42753">
        <ele>119</ele>
        <time>2016-12-03T11:19:21Z</time>
      </trkpt>
      <trkpt lat="45.30434" lon="0.4272">
        <ele>121</ele>
        <time>2016-12-03T11:19:50Z</time>
      </trkpt>
      <trkpt lat="45.30399" lon="0.42697">
        <ele>118</ele>
        <time>2016-12-03T11:20:19Z</time>
      </trkpt>
      <trkpt lat="45.30362" lon="0.42678">
        <ele>113</ele>
        <time>2016-12-03T11:20:49Z</time>
      </trkpt>
      <trkpt lat="45.30341" lon="0.42641">
        <ele>111</ele>
        <time>2016-12-03T11:21:18Z</time>
      </trkpt>
      <trkpt lat="45.30326" lon="0.42597">
        <ele>111</ele>
        <time>2016-12-03T11:21:48Z</time>
      </trkpt>
      <trkpt lat="45.30307" lon="0.42561">
        <ele>112</ele>
        <time>2016-12-03T11:22:17Z</time>
      </trkpt>
      <trkpt lat="45.30292" lon="0.42523">
        <ele>120</ele>
        <time>2016-12-03T11:22:46Z</time>
      </trkpt>
      <trkpt lat="45.30273" lon="0.4248">
        <ele>114</ele>
        <time>2016-12-03T11:23:16Z</time>
      </trkpt>
      <trkpt lat="45.30276" lon="0.42436">
        <ele>112</ele>
        <time>2016-12-03T11:23:45Z</time>
      </trkpt>
      <trkpt lat="45.30274" lon="0.42384">
        <ele>113</ele>
        <time>2016-12-03T11:24:14Z</time>
      </trkpt>
      <trkpt lat="45.30275" lon="0.42343">
        <ele>121</ele>
        <time>2016-12-03T11:24:43Z</time>
      </trkpt>
      <trkpt lat="45.30259" lon="0.42298">
        <ele>123</ele>
        <time>2016-12-03T11:25:13Z</time>
      </trkpt>
      <trkpt lat="45.30248" lon="0.42261">
        <ele>128</ele>
        <time>2016-12-03T11:25:42Z</time>
      </trkpt>
      <trkpt lat="45.30225" lon="0.42222">
        <ele>121</ele>
        <time>2016-12-03T11:26:11Z</time>
      </trkpt>
      <trkpt lat="45.30217" lon="0.42176">
        <ele>122</ele>
        <time>2016-12-03T11:26:40Z</time>
      </trkpt>
      <trkpt lat="45.30197" lon="0.42136">
        <ele>119</ele>
        <time>2016-12-03T11:27:09Z</time>
      </trkpt>
      <trkpt lat="45.30178" lon="0.42094">
        <ele>117</ele>
        <time>2016-12-03T11:27:39Z</time>
      </trkpt>
      <trkpt lat="45.30157" lon="0.42051">
        <ele>117</ele>
        <time>2016-12-03T11:28:08Z</time>
      </trkpt>
      <trkpt lat="45.30136" lon="0.4201">
        <ele>114</ele>
        <time>2016-12-03T11:28:37Z</time>
      </trkpt>
      <trkpt lat="45.30109" lon="0.41969">
        <ele>112</ele>
        <time>2016-12-03T11:29:06Z</time>
      </trkpt>
      <trkpt lat="45.30085" lon="0.41932">
        <ele>116</ele>
        <time>2016-12-03T11:29:36Z</time>
      </trkpt>
      <trkpt lat="45.30057" lon="0.41903">
        <ele>117</ele>
        <time>2016-12-03T11:30:05Z</time>
      </trkpt>
      <trkpt lat="45.30029" lon="0.41878">
        <ele>118</ele>
        <time>2016-12-03T11:30:35Z</time>
      </trkpt>
      <trkpt lat="45.29995" lon="0.41843">
        <ele>108</ele>
        <time>2016-12-03T11:31:05Z</time>
      </trkpt>
      <trkpt lat="45.29976" lon="0.41807">
        <ele>105</ele>
        <time>2016-12-03T11:31:35Z</time>
      </trkpt>
      <trkpt lat="45.29959" lon="0.41769">
        <ele>102</ele>
        <time>2016-12-03T11:32:04Z</time>
      </trkpt>
      <trkpt lat="45.29951" lon="0.41731">
        <ele>100</ele>
        <time>2016-12-03T11:32:33Z</time>
      </trkpt>
      <trkpt lat="45.29972" lon="0.41701">
        <ele>100</ele>
        <time>2016-12-03T11:33:03Z</time>
      </trkpt>
      <trkpt lat="45.29996" lon="0.41676">
        <ele>104</ele>
        <time>2016-12-03T11:33:32Z</time>
      </trkpt>
      <trkpt lat="45.30018" lon="0.41647">
        <ele>107</ele>
        <time>2016-12-03T11:34:01Z</time>
      </trkpt>
      <trkpt lat="45.30015" lon="0.41593">
        <ele>108</ele>
        <time>2016-12-03T11:34:31Z</time>
      </trkpt>
      <trkpt lat="45.2999" lon="0.41564">
        <ele>104</ele>
        <time>2016-12-03T11:35:00Z</time>
      </trkpt>
      <trkpt lat="45.29956" lon="0.41538">
        <ele>99</ele>
        <time>2016-12-03T11:35:30Z</time>
      </trkpt>
      <trkpt lat="45.29926" lon="0.41516">
        <ele>103</ele>
        <time>2016-12-03T11:35:59Z</time>
      </trkpt>
      <trkpt lat="45.29921" lon="0.41491">
        <ele>103</ele>
        <time>2016-12-03T11:36:29Z</time>
      </trkpt>
      <trkpt lat="45.29919" lon="0.41476">
        <ele>106</ele>
        <time>2016-12-03T11:36:59Z</time>
      </trkpt>
      <trkpt lat="45.29919" lon="0.4146">
        <ele>105</ele>
        <time>2016-12-03T11:37:21Z</time>
      </trkpt>
      <trkpt lat="45.29919" lon="0.4146">
        <ele>105</ele>
        <time>2016-12-03T11:37:22Z</time>
      </trkpt>
    </trkseg>
  </trk>
</gpx>